sensor_id;sensor_type;location;lat;lon;timestamp;P1;durP1;ratioP1;P2;durP2;ratioP2
4089;SDS011;2059;48.538;12.146;2024-02-21T00:04:45;14.77;;;8.30;;
4089;SDS011;2059;48.538;12.146;2024-02-21T00:09:48;10.67;;;9.73;;
4089;SDS011;2059;48.538;12.146;2024-02-21T00:14:50;9.20;;;8.40;;
4089;SDS011;2059;48.538;12.146;2024-02-21T00:19:51;9.70;;;8.70;;
4089;SDS011;2059;48.538;12.146;2024-02-21T00:24:54;9.20;;;8.47;;
4089;SDS011;2059;48.538;12.146;2024-02-21T00:29:58;10.10;;;9.10;;
4089;SDS011;2059;48.538;12.146;2024-02-21T00:34:59;8.70;;;7.80;;
4089;SDS011;2059;48.538;12.146;2024-02-21T00:40:03;10.17;;;9.07;;
4089;SDS011;2059;48.538;12.146;2024-02-21T00:45:06;9.17;;;8.00;;
4089;SDS011;2059;48.538;12.146;2024-02-21T00:50:09;8.40;;;7.77;;
4089;SDS011;2059;48.538;12.146;2024-02-21T00:55:12;8.53;;;7.60;;
4089;SDS011;2059;48.538;12.146;2024-02-21T01:00:14;9.07;;;8.10;;
4089;SDS011;2059;48.538;12.146;2024-02-21T01:05:16;9.77;;;8.73;;
4089;SDS011;2059;48.538;12.146;2024-02-21T01:10:20;9.47;;;7.73;;
4089;SDS011;2059;48.538;12.146;2024-02-21T01:15:22;8.90;;;8.00;;
4089;SDS011;2059;48.538;12.146;2024-02-21T01:20:24;10.07;;;8.10;;
4089;SDS011;2059;48.538;12.146;2024-02-21T01:25:27;11.37;;;7.40;;
4089;SDS011;2059;48.538;12.146;2024-02-21T01:30:29;8.37;;;7.57;;
4089;SDS011;2059;48.538;12.146;2024-02-21T01:35:31;9.07;;;7.63;;
4089;SDS011;2059;48.538;12.146;2024-02-21T01:40:34;8.90;;;7.47;;
4089;SDS011;2059;48.538;12.146;2024-02-21T01:45:35;9.77;;;7.47;;
4089;SDS011;2059;48.538;12.146;2024-02-21T01:50:37;8.53;;;7.80;;
4089;SDS011;2059;48.538;12.146;2024-02-21T01:55:40;8.00;;;7.30;;
4089;SDS011;2059;48.538;12.146;2024-02-21T02:00:42;8.47;;;7.63;;
4089;SDS011;2059;48.538;12.146;2024-02-21T02:05:45;8.30;;;7.53;;
4089;SDS011;2059;48.538;12.146;2024-02-21T02:10:49;9.20;;;7.47;;
4089;SDS011;2059;48.538;12.146;2024-02-21T02:15:51;8.07;;;7.47;;
4089;SDS011;2059;48.538;12.146;2024-02-21T02:20:52;8.53;;;7.30;;
4089;SDS011;2059;48.538;12.146;2024-02-21T02:25:55;8.47;;;7.00;;
4089;SDS011;2059;48.538;12.146;2024-02-21T02:30:57;7.97;;;6.77;;
4089;SDS011;2059;48.538;12.146;2024-02-21T02:35:59;8.73;;;7.17;;
4089;SDS011;2059;48.538;12.146;2024-02-21T02:41:02;9.20;;;8.50;;
4089;SDS011;2059;48.538;12.146;2024-02-21T02:46:04;9.60;;;8.53;;
4089;SDS011;2059;48.538;12.146;2024-02-21T02:51:05;9.50;;;8.20;;
4089;SDS011;2059;48.538;12.146;2024-02-21T02:56:08;8.57;;;7.70;;
4089;SDS011;2059;48.538;12.146;2024-02-21T03:01:15;8.63;;;7.83;;
4089;SDS011;2059;48.538;12.146;2024-02-21T03:06:17;8.27;;;7.67;;
4089;SDS011;2059;48.538;12.146;2024-02-21T03:11:20;7.87;;;7.00;;
4089;SDS011;2059;48.538;12.146;2024-02-21T03:16:28;8.13;;;7.43;;
4089;SDS011;2059;48.538;12.146;2024-02-21T03:21:30;9.73;;;7.00;;
4089;SDS011;2059;48.538;12.146;2024-02-21T03:26:33;6.77;;;6.27;;
4089;SDS011;2059;48.538;12.146;2024-02-21T03:31:35;7.40;;;6.83;;
4089;SDS011;2059;48.538;12.146;2024-02-21T03:36:36;7.47;;;6.83;;
4089;SDS011;2059;48.538;12.146;2024-02-21T03:41:40;7.30;;;6.60;;
4089;SDS011;2059;48.538;12.146;2024-02-21T03:46:41;11.43;;;7.37;;
4089;SDS011;2059;48.538;12.146;2024-02-21T03:51:43;7.07;;;6.57;;
4089;SDS011;2059;48.538;12.146;2024-02-21T03:56:46;7.53;;;6.83;;
4089;SDS011;2059;48.538;12.146;2024-02-21T04:01:51;7.93;;;7.23;;
4089;SDS011;2059;48.538;12.146;2024-02-21T04:06:53;8.20;;;7.40;;
4089;SDS011;2059;48.538;12.146;2024-02-21T04:11:56;7.80;;;7.10;;
4089;SDS011;2059;48.538;12.146;2024-02-21T04:17:10;7.80;;;7.20;;
4089;SDS011;2059;48.538;12.146;2024-02-21T04:22:17;8.03;;;7.33;;
4089;SDS011;2059;48.538;12.146;2024-02-21T04:27:20;9.83;;;8.53;;
4089;SDS011;2059;48.538;12.146;2024-02-21T04:32:22;8.10;;;7.30;;
4089;SDS011;2059;48.538;12.146;2024-02-21T04:37:24;8.00;;;7.30;;
4089;SDS011;2059;48.538;12.146;2024-02-21T04:42:27;7.27;;;6.67;;
4089;SDS011;2059;48.538;12.146;2024-02-21T04:47:29;7.47;;;6.97;;
4089;SDS011;2059;48.538;12.146;2024-02-21T04:52:31;7.73;;;7.13;;
4089;SDS011;2059;48.538;12.146;2024-02-21T04:57:34;9.70;;;8.77;;
4089;SDS011;2059;48.538;12.146;2024-02-21T05:02:36;7.60;;;7.00;;
4089;SDS011;2059;48.538;12.146;2024-02-21T05:07:38;10.33;;;7.13;;
4089;SDS011;2059;48.538;12.146;2024-02-21T05:12:41;6.90;;;6.40;;
4089;SDS011;2059;48.538;12.146;2024-02-21T05:17:43;7.23;;;6.73;;
4089;SDS011;2059;48.538;12.146;2024-02-21T05:22:45;6.83;;;6.40;;
4089;SDS011;2059;48.538;12.146;2024-02-21T05:27:48;7.90;;;7.20;;
4089;SDS011;2059;48.538;12.146;2024-02-21T05:32:53;7.53;;;6.93;;
4089;SDS011;2059;48.538;12.146;2024-02-21T05:37:54;8.10;;;7.50;;
4089;SDS011;2059;48.538;12.146;2024-02-21T05:42:58;7.83;;;7.23;;
4089;SDS011;2059;48.538;12.146;2024-02-21T05:48:00;8.50;;;7.73;;
4089;SDS011;2059;48.538;12.146;2024-02-21T05:53:02;7.70;;;6.97;;
4089;SDS011;2059;48.538;12.146;2024-02-21T05:58:06;7.70;;;7.10;;
4089;SDS011;2059;48.538;12.146;2024-02-21T06:03:11;7.73;;;7.03;;
4089;SDS011;2059;48.538;12.146;2024-02-21T06:08:13;11.50;;;6.80;;
4089;SDS011;2059;48.538;12.146;2024-02-21T06:13:16;8.00;;;7.27;;
4089;SDS011;2059;48.538;12.146;2024-02-21T06:18:19;7.60;;;6.80;;
4089;SDS011;2059;48.538;12.146;2024-02-21T06:23:21;9.17;;;8.47;;
4089;SDS011;2059;48.538;12.146;2024-02-21T06:28:25;8.53;;;7.73;;
4089;SDS011;2059;48.538;12.146;2024-02-21T06:33:27;8.83;;;8.13;;
4089;SDS011;2059;48.538;12.146;2024-02-21T06:38:29;8.53;;;7.93;;
4089;SDS011;2059;48.538;12.146;2024-02-21T06:43:32;8.20;;;7.50;;
4089;SDS011;2059;48.538;12.146;2024-02-21T06:48:34;8.00;;;7.40;;
4089;SDS011;2059;48.538;12.146;2024-02-21T06:53:37;8.30;;;7.73;;
4089;SDS011;2059;48.538;12.146;2024-02-21T06:58:41;8.57;;;7.80;;
4089;SDS011;2059;48.538;12.146;2024-02-21T07:03:43;9.37;;;8.30;;
4089;SDS011;2059;48.538;12.146;2024-02-21T07:08:45;7.87;;;7.27;;
4089;SDS011;2059;48.538;12.146;2024-02-21T07:13:48;8.90;;;8.20;;
4089;SDS011;2059;48.538;12.146;2024-02-21T07:18:51;9.50;;;8.80;;
4089;SDS011;2059;48.538;12.146;2024-02-21T07:23:52;9.47;;;8.77;;
4089;SDS011;2059;48.538;12.146;2024-02-21T07:28:55;8.90;;;8.17;;
4089;SDS011;2059;48.538;12.146;2024-02-21T07:33:57;9.40;;;8.50;;
4089;SDS011;2059;48.538;12.146;2024-02-21T07:38:59;9.40;;;8.63;;
4089;SDS011;2059;48.538;12.146;2024-02-21T07:44:02;9.27;;;8.47;;
4089;SDS011;2059;48.538;12.146;2024-02-21T07:49:04;9.57;;;8.63;;
4089;SDS011;2059;48.538;12.146;2024-02-21T07:54:05;9.67;;;8.40;;
4089;SDS011;2059;48.538;12.146;2024-02-21T07:59:08;10.77;;;9.70;;
4089;SDS011;2059;48.538;12.146;2024-02-21T08:04:10;10.10;;;9.30;;
4089;SDS011;2059;48.538;12.146;2024-02-21T08:09:12;9.07;;;8.47;;
4089;SDS011;2059;48.538;12.146;2024-02-21T08:14:15;9.63;;;9.03;;
4089;SDS011;2059;48.538;12.146;2024-02-21T08:19:17;9.77;;;8.50;;
4089;SDS011;2059;48.538;12.146;2024-02-21T08:24:18;8.67;;;8.13;;
4089;SDS011;2059;48.538;12.146;2024-02-21T08:29:24;8.77;;;8.20;;
4089;SDS011;2059;48.538;12.146;2024-02-21T08:34:25;9.10;;;8.53;;
4089;SDS011;2059;48.538;12.146;2024-02-21T08:39:29;8.83;;;8.23;;
4089;SDS011;2059;48.538;12.146;2024-02-21T08:44:32;8.50;;;7.90;;
4089;SDS011;2059;48.538;12.146;2024-02-21T08:49:34;8.70;;;8.20;;
4089;SDS011;2059;48.538;12.146;2024-02-21T08:54:35;8.50;;;8.07;;
4089;SDS011;2059;48.538;12.146;2024-02-21T08:59:38;8.20;;;7.80;;
4089;SDS011;2059;48.538;12.146;2024-02-21T09:04:40;8.67;;;8.17;;
4089;SDS011;2059;48.538;12.146;2024-02-21T09:09:42;9.33;;;8.80;;
4089;SDS011;2059;48.538;12.146;2024-02-21T09:14:45;9.00;;;8.10;;
4089;SDS011;2059;48.538;12.146;2024-02-21T09:19:50;8.40;;;7.90;;
4089;SDS011;2059;48.538;12.146;2024-02-21T09:24:52;9.10;;;8.50;;
4089;SDS011;2059;48.538;12.146;2024-02-21T09:29:55;9.10;;;8.60;;
4089;SDS011;2059;48.538;12.146;2024-02-21T09:34:57;9.77;;;8.90;;
4089;SDS011;2059;48.538;12.146;2024-02-21T09:39:58;9.63;;;8.77;;
4089;SDS011;2059;48.538;12.146;2024-02-21T09:45:02;11.63;;;10.63;;
4089;SDS011;2059;48.538;12.146;2024-02-21T09:50:08;9.53;;;8.87;;
4089;SDS011;2059;48.538;12.146;2024-02-21T09:55:10;8.53;;;8.13;;
4089;SDS011;2059;48.538;12.146;2024-02-21T10:00:16;8.97;;;8.47;;
4089;SDS011;2059;48.538;12.146;2024-02-21T10:05:21;8.80;;;8.30;;
4089;SDS011;2059;48.538;12.146;2024-02-21T10:10:24;10.03;;;9.33;;
4089;SDS011;2059;48.538;12.146;2024-02-21T10:15:28;10.67;;;9.87;;
4089;SDS011;2059;48.538;12.146;2024-02-21T10:20:30;9.13;;;8.63;;
4089;SDS011;2059;48.538;12.146;2024-02-21T10:25:32;9.20;;;8.60;;
4089;SDS011;2059;48.538;12.146;2024-02-21T10:30:35;9.50;;;8.90;;
4089;SDS011;2059;48.538;12.146;2024-02-21T10:35:37;9.13;;;8.40;;
4089;SDS011;2059;48.538;12.146;2024-02-21T10:40:38;9.73;;;9.10;;
4089;SDS011;2059;48.538;12.146;2024-02-21T10:45:41;10.40;;;9.50;;
4089;SDS011;2059;48.538;12.146;2024-02-21T10:50:47;10.40;;;9.43;;
4089;SDS011;2059;48.538;12.146;2024-02-21T10:55:58;10.60;;;9.73;;
4089;SDS011;2059;48.538;12.146;2024-02-21T11:01:07;10.53;;;9.67;;
4089;SDS011;2059;48.538;12.146;2024-02-21T11:06:10;10.33;;;9.53;;
4089;SDS011;2059;48.538;12.146;2024-02-21T11:11:13;10.73;;;9.90;;
4089;SDS011;2059;48.538;12.146;2024-02-21T11:16:22;10.23;;;9.43;;
4089;SDS011;2059;48.538;12.146;2024-02-21T11:21:32;10.50;;;9.60;;
4089;SDS011;2059;48.538;12.146;2024-02-21T11:26:36;10.40;;;9.60;;
4089;SDS011;2059;48.538;12.146;2024-02-21T11:31:40;10.40;;;9.60;;
4089;SDS011;2059;48.538;12.146;2024-02-21T11:36:46;10.10;;;9.50;;
4089;SDS011;2059;48.538;12.146;2024-02-21T11:42:02;9.70;;;9.10;;
4089;SDS011;2059;48.538;12.146;2024-02-21T11:47:06;10.23;;;9.63;;
4089;SDS011;2059;48.538;12.146;2024-02-21T11:52:08;10.00;;;9.40;;
4089;SDS011;2059;48.538;12.146;2024-02-21T11:57:10;10.20;;;9.60;;
4089;SDS011;2059;48.538;12.146;2024-02-21T12:02:14;9.50;;;9.00;;
4089;SDS011;2059;48.538;12.146;2024-02-21T12:07:17;9.50;;;8.87;;
4089;SDS011;2059;48.538;12.146;2024-02-21T12:12:19;10.07;;;9.27;;
4089;SDS011;2059;48.538;12.146;2024-02-21T12:17:22;9.30;;;8.70;;
4089;SDS011;2059;48.538;12.146;2024-02-21T12:22:24;10.10;;;9.30;;
4089;SDS011;2059;48.538;12.146;2024-02-21T12:27:27;10.27;;;9.47;;
4089;SDS011;2059;48.538;12.146;2024-02-21T12:32:30;9.67;;;9.07;;
4089;SDS011;2059;48.538;12.146;2024-02-21T12:37:32;10.30;;;9.53;;
4089;SDS011;2059;48.538;12.146;2024-02-21T12:42:37;10.03;;;9.33;;
4089;SDS011;2059;48.538;12.146;2024-02-21T12:47:41;10.13;;;9.43;;
4089;SDS011;2059;48.538;12.146;2024-02-21T12:52:42;10.03;;;9.20;;
4089;SDS011;2059;48.538;12.146;2024-02-21T12:57:45;10.30;;;9.60;;
4089;SDS011;2059;48.538;12.146;2024-02-21T13:02:48;10.77;;;9.87;;
4089;SDS011;2059;48.538;12.146;2024-02-21T13:07:50;10.50;;;9.70;;
4089;SDS011;2059;48.538;12.146;2024-02-21T13:12:51;10.73;;;9.93;;
4089;SDS011;2059;48.538;12.146;2024-02-21T13:17:55;10.27;;;9.47;;
4089;SDS011;2059;48.538;12.146;2024-02-21T13:22:57;9.70;;;9.10;;
4089;SDS011;2059;48.538;12.146;2024-02-21T13:28:00;9.37;;;8.73;;
4089;SDS011;2059;48.538;12.146;2024-02-21T13:33:05;9.53;;;8.93;;
4089;SDS011;2059;48.538;12.146;2024-02-21T13:38:08;9.97;;;9.13;;
4089;SDS011;2059;48.538;12.146;2024-02-21T13:43:10;10.63;;;9.90;;
4089;SDS011;2059;48.538;12.146;2024-02-21T13:48:14;9.60;;;9.10;;
4089;SDS011;2059;48.538;12.146;2024-02-21T13:53:16;10.00;;;9.50;;
4089;SDS011;2059;48.538;12.146;2024-02-21T13:58:18;10.50;;;9.47;;
4089;SDS011;2059;48.538;12.146;2024-02-21T14:03:22;9.90;;;9.30;;
4089;SDS011;2059;48.538;12.146;2024-02-21T14:08:25;10.10;;;9.57;;
4089;SDS011;2059;48.538;12.146;2024-02-21T14:13:27;9.33;;;8.83;;
4089;SDS011;2059;48.538;12.146;2024-02-21T14:18:31;9.57;;;9.07;;
4089;SDS011;2059;48.538;12.146;2024-02-21T14:23:33;9.00;;;8.23;;
4089;SDS011;2059;48.538;12.146;2024-02-21T14:28:34;9.80;;;9.20;;
4089;SDS011;2059;48.538;12.146;2024-02-21T14:33:38;9.27;;;8.77;;
4089;SDS011;2059;48.538;12.146;2024-02-21T14:38:40;9.50;;;8.90;;
4089;SDS011;2059;48.538;12.146;2024-02-21T14:43:43;9.87;;;9.23;;
4089;SDS011;2059;48.538;12.146;2024-02-21T14:48:46;9.40;;;8.80;;
4089;SDS011;2059;48.538;12.146;2024-02-21T14:53:48;9.23;;;8.73;;
4089;SDS011;2059;48.538;12.146;2024-02-21T14:58:50;9.50;;;8.87;;
4089;SDS011;2059;48.538;12.146;2024-02-21T15:03:53;9.33;;;8.37;;
4089;SDS011;2059;48.538;12.146;2024-02-21T15:08:55;9.20;;;8.60;;
4089;SDS011;2059;48.538;12.146;2024-02-21T15:13:57;9.73;;;8.90;;
4089;SDS011;2059;48.538;12.146;2024-02-21T15:19:01;8.60;;;8.20;;
4089;SDS011;2059;48.538;12.146;2024-02-21T15:24:03;8.50;;;8.10;;
4089;SDS011;2059;48.538;12.146;2024-02-21T15:29:05;8.37;;;7.97;;
4089;SDS011;2059;48.538;12.146;2024-02-21T15:34:08;9.00;;;8.20;;
4089;SDS011;2059;48.538;12.146;2024-02-21T15:39:10;9.10;;;8.60;;
4089;SDS011;2059;48.538;12.146;2024-02-21T15:44:12;9.70;;;9.10;;
4089;SDS011;2059;48.538;12.146;2024-02-21T15:49:15;9.87;;;9.17;;
4089;SDS011;2059;48.538;12.146;2024-02-21T15:54:17;9.83;;;9.23;;
4089;SDS011;2059;48.538;12.146;2024-02-21T15:59:19;10.93;;;10.03;;
4089;SDS011;2059;48.538;12.146;2024-02-21T16:04:23;10.03;;;9.33;;
4089;SDS011;2059;48.538;12.146;2024-02-21T16:09:24;11.00;;;10.07;;
4089;SDS011;2059;48.538;12.146;2024-02-21T16:14:28;10.90;;;10.10;;
4089;SDS011;2059;48.538;12.146;2024-02-21T16:19:31;9.03;;;8.23;;
4089;SDS011;2059;48.538;12.146;2024-02-21T16:24:33;9.50;;;9.00;;
4089;SDS011;2059;48.538;12.146;2024-02-21T16:29:35;9.37;;;8.77;;
4089;SDS011;2059;48.538;12.146;2024-02-21T16:34:40;9.57;;;8.93;;
4089;SDS011;2059;48.538;12.146;2024-02-21T16:39:42;9.43;;;8.83;;
4089;SDS011;2059;48.538;12.146;2024-02-21T16:44:43;9.20;;;8.70;;
4089;SDS011;2059;48.538;12.146;2024-02-21T16:49:46;9.53;;;8.80;;
4089;SDS011;2059;48.538;12.146;2024-02-21T16:54:49;8.47;;;8.03;;
4089;SDS011;2059;48.538;12.146;2024-02-21T16:59:52;8.30;;;7.80;;
4089;SDS011;2059;48.538;12.146;2024-02-21T17:04:55;8.77;;;8.17;;
4089;SDS011;2059;48.538;12.146;2024-02-21T17:09:57;9.30;;;8.53;;
4089;SDS011;2059;48.538;12.146;2024-02-21T17:14:59;8.63;;;8.03;;
4089;SDS011;2059;48.538;12.146;2024-02-21T17:20:02;8.80;;;8.30;;
4089;SDS011;2059;48.538;12.146;2024-02-21T17:25:04;10.83;;;8.40;;
4089;SDS011;2059;48.538;12.146;2024-02-21T17:30:10;9.13;;;8.60;;
4089;SDS011;2059;48.538;12.146;2024-02-21T17:35:13;8.60;;;8.00;;
4089;SDS011;2059;48.538;12.146;2024-02-21T17:40:15;9.97;;;9.07;;
4089;SDS011;2059;48.538;12.146;2024-02-21T17:45:17;11.00;;;10.00;;
4089;SDS011;2059;48.538;12.146;2024-02-21T17:55:23;15.80;;;9.90;;
4089;SDS011;2059;48.538;12.146;2024-02-21T18:00:25;10.63;;;9.40;;
4089;SDS011;2059;48.538;12.146;2024-02-21T18:05:31;9.43;;;8.70;;
4089;SDS011;2059;48.538;12.146;2024-02-21T18:10:33;15.70;;;9.13;;
4089;SDS011;2059;48.538;12.146;2024-02-21T18:15:37;9.77;;;9.07;;
4089;SDS011;2059;48.538;12.146;2024-02-21T18:20:41;9.93;;;9.23;;
4089;SDS011;2059;48.538;12.146;2024-02-21T18:25:43;10.27;;;9.37;;
4089;SDS011;2059;48.538;12.146;2024-02-21T18:30:46;10.63;;;9.83;;
4089;SDS011;2059;48.538;12.146;2024-02-21T18:35:49;13.30;;;12.30;;
4089;SDS011;2059;48.538;12.146;2024-02-21T18:40:51;12.40;;;10.87;;
4089;SDS011;2059;48.538;12.146;2024-02-21T18:45:53;11.83;;;10.97;;
4089;SDS011;2059;48.538;12.146;2024-02-21T18:50:58;12.30;;;11.30;;
4089;SDS011;2059;48.538;12.146;2024-02-21T18:55:59;14.53;;;13.13;;
4089;SDS011;2059;48.538;12.146;2024-02-21T19:01:01;14.50;;;13.10;;
4089;SDS011;2059;48.538;12.146;2024-02-21T19:06:05;14.00;;;12.70;;
4089;SDS011;2059;48.538;12.146;2024-02-21T19:11:07;12.40;;;11.50;;
4089;SDS011;2059;48.538;12.146;2024-02-21T19:16:09;12.07;;;10.57;;
4089;SDS011;2059;48.538;12.146;2024-02-21T19:21:12;11.37;;;10.40;;
4089;SDS011;2059;48.538;12.146;2024-02-21T19:26:14;11.57;;;10.70;;
4089;SDS011;2059;48.538;12.146;2024-02-21T19:31:16;11.10;;;10.30;;
4089;SDS011;2059;48.538;12.146;2024-02-21T19:36:19;11.73;;;10.63;;
4089;SDS011;2059;48.538;12.146;2024-02-21T19:41:21;10.83;;;9.83;;
4089;SDS011;2059;48.538;12.146;2024-02-21T19:46:23;12.00;;;11.10;;
4089;SDS011;2059;48.538;12.146;2024-02-21T19:51:26;11.00;;;10.10;;
4089;SDS011;2059;48.538;12.146;2024-02-21T19:56:28;10.97;;;10.17;;
4089;SDS011;2059;48.538;12.146;2024-02-21T20:01:30;12.43;;;11.53;;
4089;SDS011;2059;48.538;12.146;2024-02-21T20:06:33;14.57;;;13.27;;
4089;SDS011;2059;48.538;12.146;2024-02-21T20:11:35;12.60;;;11.70;;
4089;SDS011;2059;48.538;12.146;2024-02-21T20:16:37;16.73;;;15.03;;
4089;SDS011;2059;48.538;12.146;2024-02-21T20:21:40;12.40;;;11.37;;
4089;SDS011;2059;48.538;12.146;2024-02-21T20:26:43;10.70;;;9.80;;
4089;SDS011;2059;48.538;12.146;2024-02-21T20:31:46;10.40;;;9.70;;
4089;SDS011;2059;48.538;12.146;2024-02-21T20:36:49;10.60;;;9.80;;
4089;SDS011;2059;48.538;12.146;2024-02-21T20:41:51;10.23;;;9.30;;
4089;SDS011;2059;48.538;12.146;2024-02-21T20:46:53;10.63;;;9.87;;
4089;SDS011;2059;48.538;12.146;2024-02-21T20:51:57;10.80;;;9.90;;
4089;SDS011;2059;48.538;12.146;2024-02-21T20:56:58;10.73;;;9.93;;
4089;SDS011;2059;48.538;12.146;2024-02-21T21:02:01;15.20;;;13.70;;
4089;SDS011;2059;48.538;12.146;2024-02-21T21:07:04;14.83;;;11.70;;
4089;SDS011;2059;48.538;12.146;2024-02-21T21:12:06;13.50;;;12.30;;
4089;SDS011;2059;48.538;12.146;2024-02-21T21:17:08;13.93;;;12.63;;
4089;SDS011;2059;48.538;12.146;2024-02-21T21:22:11;13.27;;;12.07;;
4089;SDS011;2059;48.538;12.146;2024-02-21T21:27:13;14.63;;;13.50;;
4089;SDS011;2059;48.538;12.146;2024-02-21T21:32:17;12.57;;;11.57;;
4089;SDS011;2059;48.538;12.146;2024-02-21T21:37:20;12.30;;;11.20;;
4089;SDS011;2059;48.538;12.146;2024-02-21T21:42:22;11.37;;;10.40;;
4089;SDS011;2059;48.538;12.146;2024-02-21T21:47:23;12.73;;;11.50;;
4089;SDS011;2059;48.538;12.146;2024-02-21T21:52:26;11.10;;;10.30;;
4089;SDS011;2059;48.538;12.146;2024-02-21T21:57:28;12.60;;;11.60;;
4089;SDS011;2059;48.538;12.146;2024-02-21T22:02:30;11.87;;;10.87;;
4089;SDS011;2059;48.538;12.146;2024-02-21T22:07:33;13.43;;;12.23;;
4089;SDS011;2059;48.538;12.146;2024-02-21T22:12:35;11.30;;;10.30;;
4089;SDS011;2059;48.538;12.146;2024-02-21T22:17:37;11.70;;;10.70;;
4089;SDS011;2059;48.538;12.146;2024-02-21T22:22:40;11.50;;;10.50;;
4089;SDS011;2059;48.538;12.146;2024-02-21T22:27:42;11.50;;;10.60;;
4089;SDS011;2059;48.538;12.146;2024-02-21T22:32:44;10.10;;;9.40;;
4089;SDS011;2059;48.538;12.146;2024-02-21T22:37:48;11.07;;;10.10;;
4089;SDS011;2059;48.538;12.146;2024-02-21T22:42:50;10.93;;;10.03;;
4089;SDS011;2059;48.538;12.146;2024-02-21T22:47:53;10.40;;;9.67;;
4089;SDS011;2059;48.538;12.146;2024-02-21T22:52:57;11.70;;;10.73;;
4089;SDS011;2059;48.538;12.146;2024-02-21T22:58:00;10.63;;;9.73;;
4089;SDS011;2059;48.538;12.146;2024-02-21T23:03:02;9.73;;;9.03;;
4089;SDS011;2059;48.538;12.146;2024-02-21T23:08:06;9.97;;;9.17;;
4089;SDS011;2059;48.538;12.146;2024-02-21T23:13:08;10.23;;;9.53;;
4089;SDS011;2059;48.538;12.146;2024-02-21T23:18:10;10.90;;;10.10;;
4089;SDS011;2059;48.538;12.146;2024-02-21T23:23:13;9.73;;;9.10;;
4089;SDS011;2059;48.538;12.146;2024-02-21T23:28:15;10.83;;;10.13;;
4089;SDS011;2059;48.538;12.146;2024-02-21T23:33:16;9.43;;;8.80;;
4089;SDS011;2059;48.538;12.146;2024-02-21T23:38:20;11.53;;;10.73;;
4089;SDS011;2059;48.538;12.146;2024-02-21T23:43:21;10.30;;;9.60;;
4089;SDS011;2059;48.538;12.146;2024-02-21T23:48:24;10.17;;;9.37;;
4089;SDS011;2059;48.538;12.146;2024-02-21T23:53:27;11.33;;;10.17;;
4089;SDS011;2059;48.538;12.146;2024-02-21T23:58:29;10.67;;;9.93;;
